Time;durP1;ratioP1;P1;durP2;ratioP2;P2;SDS_P1;SDS_P2;PMS_P1;PMS_P2;Temp;Humidity;BMP_temperature;BMP_pressure;BME280_temperature;BME280_humidity;BME280_pressure;Samples;Min_cycle;Max_cycle;Signal;HPM_P1;HPM_P2
2023/07/23 00:00:26;;;;;;;0.40;0.40;;;;;;;21.18;60.52;95387.88;4362679;32;20237;-60
2023/07/23 00:02:52;;;;;;;0.40;0.40;;;;;;;21.19;60.46;95384.03;4361021;32;20269;-60
2023/07/23 00:05:17;;;;;;;1.90;1.80;;;;;;;21.17;60.53;95380.91;4341840;32;20208;-60
2023/07/23 00:07:42;;;;;;;0.83;0.83;;;;;;;21.15;60.68;95388.56;4357571;32;20197;-60
2023/07/23 00:10:11;;;;;;;1.10;1.10;;;;;;;21.18;60.71;95382.47;4335570;32;20222;-60
2023/07/23 00:12:37;;;;;;;0.40;0.40;;;;;;;21.22;60.73;95386.00;4372004;32;20272;-60
2023/07/23 00:15:03;;;;;;;0.83;0.83;;;;;;;21.21;60.67;95384.44;4340706;32;20248;-61
2023/07/23 00:17:29;;;;;;;0.80;0.80;;;;;;;21.24;60.62;95383.75;4359931;32;20193;-59
2023/07/23 00:19:54;;;;;;;0.53;0.53;;;;;;;21.22;60.61;95386.00;4346222;32;20246;-60
2023/07/23 00:22:20;;;;;;;0.73;0.73;;;;;;;21.20;60.83;95385.59;4336498;32;20202;-60
2023/07/23 00:24:45;;;;;;;1.47;1.23;;;;;;;21.19;60.85;95383.25;4344088;32;20243;-60
2023/07/23 00:27:13;;;;;;;0.43;0.43;;;;;;;21.18;60.90;95377.06;4356835;32;20232;-60
2023/07/23 00:29:39;;;;;;;1.50;0.97;;;;;;;21.20;61.01;95382.87;4344652;32;20197;-60
2023/07/23 00:32:04;;;;;;;0.47;0.47;;;;;;;21.19;60.92;95383.25;4358287;32;20228;-60
2023/07/23 00:34:30;;;;;;;1.17;1.17;;;;;;;21.19;60.96;95396.75;4349957;32;20212;-60
2023/07/23 00:36:55;;;;;;;1.00;0.93;;;;;;;21.19;61.02;95389.44;4360392;32;20193;-59
2023/07/23 00:39:20;;;;;;;0.43;0.43;;;;;;;21.17;61.04;95397.09;4335883;32;20260;-60
2023/07/23 00:41:46;;;;;;;0.47;0.47;;;;;;;21.13;61.15;95398.94;4340199;32;20201;-60
2023/07/23 00:44:11;;;;;;;0.40;0.40;;;;;;;21.03;61.43;95391.44;4347482;32;20197;-61
2023/07/23 00:46:36;;;;;;;0.37;0.37;;;;;;;21.08;61.48;95388.44;4344533;32;20232;-60
2023/07/23 00:49:02;;;;;;;1.47;1.30;;;;;;;21.07;61.38;95386.09;4336624;32;20197;-61
2023/07/23 00:51:31;;;;;;;0.47;0.40;;;;;;;21.09;61.42;95383.81;4344210;32;20260;-60
2023/07/23 00:53:56;;;;;;;0.67;0.67;;;;;;;21.08;61.58;95383.03;4349677;32;20189;-60
2023/07/23 00:56:22;;;;;;;0.70;0.70;;;;;;;20.99;61.63;95384.44;4343938;32;20295;-60
2023/07/23 00:58:47;;;;;;;0.80;0.80;;;;;;;21.04;61.72;95382.19;4351236;32;20246;-60
2023/07/23 01:01:13;;;;;;;0.33;0.33;;;;;;;20.99;61.82;95384.44;4336038;32;20233;-60
2023/07/23 01:03:39;;;;;;;1.07;1.07;;;;;;;21.04;61.79;95376.81;4352564;32;20193;-60
2023/07/23 01:06:05;;;;;;;0.80;0.80;;;;;;;21.07;61.86;95376.09;4356926;32;20192;-60
2023/07/23 01:08:34;;;;;;;1.20;1.20;;;;;;;20.98;62.07;95370.16;4361131;32;20216;-60
2023/07/23 01:11:01;;;;;;;0.97;0.97;;;;;;;20.99;61.96;95371.69;4338804;32;20208;-60
2023/07/23 01:13:27;;;;;;;0.60;0.60;;;;;;;21.00;62.13;95364.38;4351412;32;20228;-60
2023/07/23 01:15:53;;;;;;;0.70;0.70;;;;;;;21.03;62.12;95364.44;4356308;32;20256;-60
2023/07/23 01:18:20;;;;;;;2.37;1.10;;;;;;;21.06;62.02;95371.81;4355245;32;20248;-60
2023/07/23 01:20:45;;;;;;;0.97;0.70;;;;;;;21.02;61.91;95372.91;4332388;32;20237;-60
2023/07/23 01:23:10;;;;;;;0.70;0.70;;;;;;;20.98;62.10;95374.78;4345276;32;20185;-60
2023/07/23 01:25:36;;;;;;;2.13;0.83;;;;;;;20.93;62.26;95365.84;4356769;32;20205;-60
2023/07/23 01:28:01;;;;;;;1.13;0.63;;;;;;;20.90;62.34;95365.75;4355598;32;20197;-61
2023/07/23 01:30:26;;;;;;;1.03;0.90;;;;;;;20.88;62.36;95362.66;4346684;32;20236;-60
2023/07/23 01:32:52;;;;;;;1.53;1.40;;;;;;;20.87;62.42;95363.78;4346238;32;20256;-59
2023/07/23 01:35:18;;;;;;;0.87;0.87;;;;;;;20.87;62.56;95358.38;4340575;32;20190;-60
2023/07/23 01:37:47;;;;;;;0.50;0.50;;;;;;;20.80;62.70;95363.62;4357438;32;20236;-60
2023/07/23 01:40:13;;;;;;;0.87;0.87;;;;;;;20.84;62.94;95353.69;4338659;32;20211;-60
2023/07/23 01:42:39;;;;;;;0.80;0.53;;;;;;;20.84;62.65;95353.69;4345918;32;20204;-61
2023/07/23 01:45:04;;;;;;;0.83;0.83;;;;;;;20.81;62.81;95346.31;4353689;32;20265;-60
2023/07/23 01:47:30;;;;;;;0.50;0.50;;;;;;;20.84;62.90;95343.69;4358979;32;20197;-60
2023/07/23 01:49:55;;;;;;;1.30;1.20;;;;;;;20.81;62.68;95352.50;4350560;32;20255;-60
2023/07/23 01:52:21;;;;;;;0.83;0.83;;;;;;;20.79;62.83;95354.75;4357077;32;23510;-60
2023/07/23 01:54:46;;;;;;;1.90;0.87;;;;;;;20.83;62.90;95355.62;4344369;32;20196;-60
2023/07/23 01:57:12;;;;;;;0.37;0.37;;;;;;;20.83;62.92;95349.44;4346762;32;20185;-61
2023/07/23 01:59:37;;;;;;;0.50;0.50;;;;;;;20.82;62.90;95347.88;4358113;32;20255;-60
2023/07/23 02:02:06;;;;;;;0.77;0.70;;;;;;;20.82;62.90;95342.50;4346824;32;20189;-61
2023/07/23 02:04:31;;;;;;;0.70;0.70;;;;;;;20.80;62.98;95345.53;4362043;32;20211;-60
2023/07/23 02:06:56;;;;;;;0.70;0.70;;;;;;;20.82;62.86;95345.19;4350916;32;20192;-60
2023/07/23 02:09:22;;;;;;;1.60;0.87;;;;;;;20.69;63.17;95339.19;4348568;32;20292;-60
2023/07/23 02:11:47;;;;;;;0.53;0.53;;;;;;;20.71;63.15;95341.53;4353345;32;20185;-59
2023/07/23 02:14:12;;;;;;;0.53;0.53;;;;;;;20.68;63.32;95340.31;4358596;32;20194;-60
2023/07/23 02:16:38;;;;;;;0.60;0.60;;;;;;;20.76;63.09;95338.53;4341478;32;20261;-61
2023/07/23 02:19:03;;;;;;;1.23;0.80;;;;;;;20.74;63.24;95336.19;4341998;32;20198;-59
2023/07/23 02:21:28;;;;;;;2.70;0.73;;;;;;;20.70;63.10;95339.97;4338807;32;20229;-60
2023/07/23 02:23:54;;;;;;;1.03;1.03;;;;;;;20.70;63.22;95329.97;4353800;32;20246;-60
2023/07/23 02:26:19;;;;;;;1.07;0.70;;;;;;;20.68;63.31;95334.16;4352058;32;20248;-60
2023/07/23 02:28:44;;;;;;;1.03;0.60;;;;;;;20.66;63.51;95339.13;4353972;32;20193;-60
2023/07/23 02:31:10;;;;;;;0.50;0.50;;;;;;;20.64;63.69;95344.09;4350443;32;20243;-60
2023/07/23 02:33:35;;;;;;;0.50;0.50;;;;;;;20.67;63.60;95340.69;4359741;32;20255;-59
2023/07/23 02:36:02;;;;;;;0.63;0.63;;;;;;;20.64;63.57;95341.38;4347034;32;20189;-60
2023/07/23 02:38:28;;;;;;;1.20;1.20;;;;;;;20.67;63.54;95346.06;4351420;32;20245;-60
2023/07/23 02:40:57;;;;;;;0.40;0.40;;;;;;;20.64;63.61;95342.16;4347106;32;20188;-60
2023/07/23 02:43:23;;;;;;;0.70;0.70;;;;;;;20.65;63.56;95340.25;4355800;32;20202;-59
2023/07/23 02:45:49;;;;;;;0.87;0.87;;;;;;;20.68;63.54;95344.94;4348170;32;20244;-59
2023/07/23 02:48:14;;;;;;;0.87;0.87;;;;;;;20.56;63.78;95352.06;4357823;32;20201;-60
2023/07/23 02:50:40;;;;;;;0.97;0.97;;;;;;;20.61;63.87;95348.25;4367352;32;20193;-59
2023/07/23 02:53:05;;;;;;;1.00;1.00;;;;;;;20.52;63.95;95345.81;4360216;32;20355;-60
2023/07/23 02:55:32;;;;;;;1.10;1.10;;;;;;;20.51;64.02;95348.84;4365105;32;20188;-59
2023/07/23 02:57:57;;;;;;;0.40;0.40;;;;;;;20.52;64.03;95351.19;4354096;32;20188;-59
2023/07/23 03:00:22;;;;;;;0.40;0.40;;;;;;;20.48;64.24;95347.66;4354777;32;20185;-59
2023/07/23 03:02:48;;;;;;;1.27;1.17;;;;;;;20.45;64.18;95356.44;4345239;32;20243;-60
2023/07/23 03:05:14;;;;;;;0.80;0.80;;;;;;;20.44;64.49;95354.09;4364662;32;20207;-60
2023/07/23 03:07:39;;;;;;;0.83;0.83;;;;;;;20.45;64.37;95345.66;4346123;32;20201;-60
2023/07/23 03:10:05;;;;;;;2.13;0.73;;;;;;;20.38;64.61;95342.81;4356302;32;20235;-60
2023/07/23 03:12:32;;;;;;;0.77;0.77;;;;;;;20.47;64.35;95346.09;4354685;32;20244;-59
2023/07/23 03:14:57;;;;;;;1.00;1.00;;;;;;;20.52;64.20;95345.03;4342422;32;20189;-60
2023/07/23 03:17:23;;;;;;;1.53;1.37;;;;;;;20.48;64.42;95349.56;4344354;32;20186;-59
2023/07/23 03:19:48;;;;;;;1.00;1.00;;;;;;;20.51;64.44;95346.16;4351817;32;20197;-60
2023/07/23 03:22:14;;;;;;;1.13;1.00;;;;;;;20.54;64.23;95348.94;4355589;32;20238;-59
2023/07/23 03:24:39;;;;;;;0.87;0.87;;;;;;;20.54;64.27;95348.94;4341356;32;20224;-59
2023/07/23 03:27:05;;;;;;;0.80;0.80;;;;;;;20.49;64.34;95346.50;4361430;32;20185;-59
2023/07/23 03:29:30;;;;;;;1.20;1.20;;;;;;;20.53;64.24;95343.91;4363622;32;20185;-59
2023/07/23 03:31:55;;;;;;;0.87;0.87;;;;;;;20.49;64.33;95341.12;4334219;32;20210;-60
2023/07/23 03:34:21;;;;;;;1.00;1.00;;;;;;;20.48;64.30;95341.47;4330080;32;20173;-59
2023/07/23 03:36:46;;;;;;;0.60;0.60;;;;;;;20.47;64.50;95340.69;4333793;32;20205;-60
2023/07/23 03:39:16;;;;;;;1.10;1.07;;;;;;;20.46;64.46;95341.81;4319662;33;20241;-60
2023/07/23 03:41:42;;;;;;;0.87;0.87;;;;;;;20.50;64.35;95347.28;4332750;32;20252;-60
2023/07/23 03:44:07;;;;;;;1.23;1.13;;;;;;;20.54;64.31;95340.84;4337519;32;20189;-60
2023/07/23 03:46:32;;;;;;;0.50;0.50;;;;;;;20.47;64.37;95348.78;4341359;32;20227;-60
2023/07/23 03:48:58;;;;;;;0.40;0.40;;;;;;;20.41;64.51;95338.63;4340150;32;20212;-60
2023/07/23 03:51:23;;;;;;;0.40;0.40;;;;;;;20.43;64.62;95347.16;4342661;32;20209;-59
2023/07/23 03:53:48;;;;;;;3.80;0.90;;;;;;;20.38;64.85;95339.34;4330277;32;20189;-59
2023/07/23 03:56:14;;;;;;;1.23;0.97;;;;;;;20.33;64.88;95332.31;4328178;32;20181;-60
2023/07/23 03:58:39;;;;;;;0.47;0.47;;;;;;;20.37;64.82;95338.56;4325097;33;20193;-61
2023/07/23 04:01:04;;;;;;;0.47;0.47;;;;;;;20.36;64.81;95342.38;4337149;32;20202;-59
2023/07/23 04:03:30;;;;;;;0.93;0.93;;;;;;;20.32;64.91;95336.13;4339812;32;20241;-59
2023/07/23 04:05:56;;;;;;;0.60;0.60;;;;;;;20.35;64.90;95335.44;4322652;32;20241;-59
2023/07/23 04:08:22;;;;;;;1.17;1.13;;;;;;;20.36;64.83;95328.91;4331877;32;26203;-59
2023/07/23 04:10:47;;;;;;;1.07;1.07;;;;;;;20.37;64.87;95333.16;4341953;32;20232;-59
2023/07/23 04:13:12;;;;;;;1.13;1.13;;;;;;;20.32;64.98;95333.44;4339955;32;20192;-60
2023/07/23 04:15:37;;;;;;;0.43;0.43;;;;;;;20.33;64.93;95332.31;4333285;32;20246;-59
2023/07/23 04:18:11;;;;;;;0.70;0.70;;;;;;;20.38;64.74;95334.72;4333036;32;20207;-59
2023/07/23 04:20:36;;;;;;;0.67;0.67;;;;;;;20.42;64.68;95338.28;4325461;33;20236;-60
2023/07/23 04:23:02;;;;;;;0.73;0.73;;;;;;;20.37;64.78;95343.19;4341865;32;20193;-63
2023/07/23 04:25:27;;;;;;;1.00;1.00;;;;;;;20.37;64.93;95330.47;4334706;32;20214;-59
2023/07/23 04:27:52;;;;;;;0.87;0.87;;;;;;;20.36;65.02;95337.00;4324241;32;20193;-60
2023/07/23 04:30:18;;;;;;;0.67;0.67;;;;;;;20.32;65.04;95336.13;4325503;32;20201;-60
2023/07/23 04:32:43;;;;;;;1.03;1.03;;;;;;;20.27;65.26;95332.94;4348115;32;20272;-60
2023/07/23 04:35:08;;;;;;;0.77;0.77;;;;;;;20.30;65.13;95333.00;4358051;32;20216;-60
2023/07/23 04:37:34;;;;;;;0.70;0.70;;;;;;;20.35;64.97;95332.75;4358432;32;20209;-59
2023/07/23 04:39:59;;;;;;;1.20;1.10;;;;;;;20.37;64.86;95335.13;4363871;32;20188;-59
2023/07/23 04:42:24;;;;;;;0.53;0.53;;;;;;;20.35;64.91;95334.66;4353958;32;20185;-60
2023/07/23 04:44:50;;;;;;;1.40;1.30;;;;;;;20.33;65.08;95335.00;4361442;32;20193;-60
2023/07/23 04:47:15;;;;;;;1.27;1.27;;;;;;;20.34;65.15;95328.47;4342813;32;20193;-60
2023/07/23 04:49:40;;;;;;;0.80;0.80;;;;;;;20.30;65.37;95333.00;4350846;32;20343;-60
2023/07/23 04:52:06;;;;;;;0.87;0.87;;;;;;;20.28;65.53;95334.50;4361826;32;20250;-59
2023/07/23 04:54:31;;;;;;;0.67;0.67;;;;;;;20.29;65.60;95331.47;4348671;32;20189;-60
2023/07/23 04:56:56;;;;;;;0.93;0.93;;;;;;;20.33;65.32;95336.91;4345105;32;20193;-59
2023/07/23 05:02:46;;;;;;;1.07;1.07;;;;;;;20.42;65.20;95332.88;4365794;32;20257;-60
2023/07/23 05:05:11;;;;;;;0.40;0.40;;;;;;;20.42;65.28;95335.59;4348776;32;20240;-60
2023/07/23 05:07:38;;;;;;;0.80;0.80;;;;;;;20.50;64.97;95336.50;4357823;32;20192;-60
2023/07/23 05:10:04;;;;;;;0.83;0.83;;;;;;;20.58;64.80;95332.78;4349766;32;20189;-59
2023/07/23 05:12:29;;;;;;;1.03;1.03;;;;;;;20.61;64.63;95336.69;4343087;32;20208;-60
2023/07/23 05:15:09;;;;;;;0.60;0.60;;;;;;;20.63;64.61;95335.22;4352232;32;20189;-59
2023/07/23 05:17:34;;;;;;;2.10;0.90;;;;;;;20.59;64.76;95348.62;4356529;32;20212;-60
2023/07/23 05:20:00;;;;;;;0.90;0.90;;;;;;;20.55;64.93;95349.72;4364486;32;20225;-59
2023/07/23 05:22:25;;;;;;;1.17;1.17;;;;;;;20.58;65.00;95348.97;4355812;32;20184;-60
2023/07/23 05:24:50;;;;;;;0.70;0.70;;;;;;;20.57;65.01;95348.22;4354193;32;20193;-59
2023/07/23 05:27:15;;;;;;;1.13;1.03;;;;;;;20.57;64.95;95342.06;4345990;32;20224;-60
2023/07/23 05:29:41;;;;;;;0.80;0.80;;;;;;;20.61;64.98;95345.56;4343965;32;20216;-60
2023/07/23 05:32:07;;;;;;;0.90;0.90;;;;;;;20.59;65.38;95350.53;4346367;32;20252;-60
2023/07/23 05:34:32;;;;;;;0.73;0.73;;;;;;;20.61;65.11;95350.97;4339468;32;20208;-64
2023/07/23 05:36:57;;;;;;;0.70;0.70;;;;;;;20.59;65.34;95350.53;4353196;32;20190;-60
2023/07/23 05:39:22;;;;;;;1.10;1.00;;;;;;;20.68;65.09;95353.03;4359544;32;20197;-60
2023/07/23 05:41:48;;;;;;;1.43;0.77;;;;;;;20.74;64.93;95357.00;4335600;32;20220;-60
2023/07/23 05:44:13;;;;;;;0.63;0.63;;;;;;;20.73;65.19;95353.53;4351628;32;20189;-60
2023/07/23 05:46:38;;;;;;;0.63;0.63;;;;;;;20.77;64.95;95362.47;4342243;32;20196;-60
2023/07/23 05:49:04;;;;;;;1.70;1.40;;;;;;;20.79;64.98;95359.37;4357836;32;20223;-60
2023/07/23 05:51:29;;;;;;;1.23;1.13;;;;;;;20.82;65.17;95355.97;4339263;32;20259;-59
2023/07/23 05:53:54;;;;;;;0.87;0.87;;;;;;;20.87;64.88;95359.16;4335734;32;20190;-59
2023/07/23 05:56:20;;;;;;;0.97;0.87;;;;;;;20.91;64.87;95361.94;4345113;32;20256;-61
2023/07/23 05:58:45;;;;;;;0.60;0.60;;;;;;;20.93;64.83;95359.66;4360992;32;20223;-60
2023/07/23 06:01:10;;;;;;;0.60;0.60;;;;;;;20.93;65.07;95363.12;4355519;32;20204;-59
2023/07/23 06:03:36;;;;;;;1.13;1.13;;;;;;;20.94;65.18;95361.22;4339710;32;20270;-60
2023/07/23 06:06:01;;;;;;;0.63;0.63;;;;;;;20.96;65.81;95361.66;4348439;32;20211;-59
2023/07/23 06:08:26;;;;;;;0.73;0.50;;;;;;;20.86;65.88;95365.69;4362523;32;20207;-59
2023/07/23 06:10:51;;;;;;;0.90;0.70;;;;;;;20.94;65.98;95363.91;4341598;32;20420;-60
2023/07/23 06:13:17;;;;;;;3.67;1.20;;;;;;;20.98;65.53;95364.75;4347507;32;20209;-60
2023/07/23 06:15:42;;;;;;;0.97;0.97;;;;;;;20.98;65.25;95372.06;4346016;32;20190;-60
2023/07/23 06:18:07;;;;;;;0.60;0.60;;;;;;;20.93;67.41;95365.06;4336827;32;20189;-60
2023/07/23 06:20:33;;;;;;;0.63;0.63;;;;;;;21.04;66.36;95370.62;4335452;32;20230;-61
2023/07/23 06:23:00;;;;;;;0.57;0.57;;;;;;;21.05;66.04;95370.28;4360374;32;20205;-60
2023/07/23 06:25:25;;;;;;;0.50;0.50;;;;;;;21.11;65.48;95359.97;4351915;32;20185;-59
2023/07/23 06:27:50;;;;;;;0.80;0.80;;;;;;;21.08;65.32;95364.16;4353142;32;20232;-60
2023/07/23 06:30:16;;;;;;;2.10;1.07;;;;;;;21.23;64.99;95363.28;4339146;32;20239;-60
2023/07/23 06:32:41;;;;;;;0.80;0.80;;;;;;;21.23;64.75;95363.28;4326697;32;20205;-60
2023/07/23 06:35:10;;;;;;;0.87;0.87;;;;;;;21.29;64.76;95363.00;4346684;32;20229;-60
2023/07/23 06:37:36;;;;;;;0.63;0.63;;;;;;;21.33;64.41;95355.75;4336320;32;20228;-60
2023/07/23 06:40:02;;;;;;;0.83;0.83;;;;;;;21.42;64.32;95364.34;4336847;32;20211;-60
2023/07/23 06:42:27;;;;;;;0.70;0.70;;;;;;;21.50;64.41;95356.03;4334431;32;20185;-60
2023/07/23 06:44:52;;;;;;;0.50;0.50;;;;;;;21.48;65.05;95366.41;4346257;32;20318;-60
2023/07/23 06:47:19;;;;;;;2.43;1.00;;;;;;;21.54;63.68;95367.66;4335688;32;20215;-60
2023/07/23 06:49:45;;;;;;;0.70;0.70;;;;;;;21.58;63.60;95363.09;4329053;32;20193;-60
2023/07/23 06:52:10;;;;;;;0.50;0.50;;;;;;;21.60;63.38;95360.03;4337795;32;20189;-59
2023/07/23 06:54:40;;;;;;;0.63;0.63;;;;;;;21.61;63.19;95364.28;4334196;32;20201;-59
2023/07/23 06:57:06;;;;;;;0.83;0.83;;;;;;;21.63;63.19;95359.28;4337165;32;20224;-59
2023/07/23 06:59:32;;;;;;;0.60;0.60;;;;;;;21.60;64.14;95354.63;4330334;32;20197;-60
2023/07/23 07:01:57;;;;;;;0.70;0.70;;;;;;;21.70;63.66;95355.91;4333199;32;20193;-60
2023/07/23 07:04:22;;;;;;;0.33;0.33;;;;;;;21.75;63.91;95353.69;4347498;32;20275;-59
2023/07/23 07:06:47;;;;;;;0.73;0.73;;;;;;;21.86;63.54;95356.53;4348378;32;20189;-59
2023/07/23 07:09:13;;;;;;;0.70;0.70;;;;;;;21.94;62.99;95347.41;4346924;32;20196;-59
2023/07/23 07:11:38;;;;;;;0.77;0.73;;;;;;;21.99;63.20;95349.00;4345151;32;20248;-59
2023/07/23 07:14:04;;;;;;;1.37;1.27;;;;;;;22.03;61.29;95349.88;4318928;32;20231;-60
2023/07/23 07:16:29;;;;;;;0.50;0.50;;;;;;;22.06;61.70;95349.91;4351371;32;20245;-60
2023/07/23 07:18:54;;;;;;;0.47;0.47;;;;;;;22.17;61.25;95350.06;4342104;32;20270;-59
2023/07/23 07:21:20;;;;;;;0.73;0.73;;;;;;;22.21;61.78;95345.47;4362620;32;20363;-60
2023/07/23 07:23:45;;;;;;;0.80;0.80;;;;;;;22.24;62.17;95350.13;4356027;32;20193;-60
2023/07/23 07:26:10;;;;;;;1.03;1.03;;;;;;;22.28;61.70;95348.25;4354249;32;20193;-59
2023/07/23 07:28:36;;;;;;;0.33;0.33;;;;;;;22.34;61.43;95346.78;4352910;32;20215;-59
2023/07/23 07:31:03;;;;;;;0.40;0.40;;;;;;;22.40;61.63;95348.03;4340571;32;20226;-59
2023/07/23 07:33:28;;;;;;;0.97;0.97;;;;;;;22.39;60.02;95345.69;4345547;32;20189;-60
2023/07/23 07:35:58;;;;;;;1.47;1.37;;;;;;;22.47;58.92;95350.03;4359705;32;20255;-59
2023/07/23 07:38:25;;;;;;;1.13;1.03;;;;;;;22.50;59.68;95341.97;4359590;32;20312;-59
2023/07/23 07:40:51;;;;;;;2.00;0.77;;;;;;;22.54;60.29;95337.37;4349137;32;20185;-59
2023/07/23 07:43:16;;;;;;;2.00;0.27;;;;;;;22.58;59.02;95343.59;4356088;32;20208;-60
2023/07/23 07:45:41;;;;;;;1.57;0.97;;;;;;;22.62;60.20;95339.03;4354809;32;20220;-60
2023/07/23 07:48:09;;;;;;;3.30;1.23;;;;;;;22.62;59.58;95339.03;4348714;32;20220;-59
2023/07/23 07:50:34;;;;;;;2.50;1.67;;;;;;;22.63;58.26;95340.59;4340165;32;20203;-65
2023/07/23 07:52:59;;;;;;;2.83;0.87;;;;;;;22.68;59.40;95335.97;4348864;32;20247;-59
2023/07/23 07:55:25;;;;;;;1.13;1.13;;;;;;;22.73;57.32;95338.34;4354031;32;20228;-61
2023/07/23 07:57:50;;;;;;;1.17;1.07;;;;;;;22.74;58.98;95332.56;4351852;32;20260;-60
2023/07/23 08:00:16;;;;;;;0.50;0.50;;;;;;;22.75;57.47;95326.00;4348683;32;20219;-59
2023/07/23 08:02:41;;;;;;;0.77;0.77;;;;;;;22.76;56.33;95324.09;4353260;32;20197;-59
2023/07/23 08:05:07;;;;;;;1.17;1.10;;;;;;;22.78;53.27;95328.00;4335086;32;20247;-59
2023/07/23 08:07:34;;;;;;;1.40;1.10;;;;;;;22.82;54.50;95326.13;4354466;32;20211;-60
2023/07/23 08:10:00;;;;;;;0.50;0.50;;;;;;;22.86;51.76;95328.87;4349225;32;20194;-59
2023/07/23 08:12:26;;;;;;;0.60;0.60;;;;;;;22.91;51.92;95321.16;4344187;32;20202;-60
2023/07/23 08:14:52;;;;;;;0.80;0.80;;;;;;;22.93;51.33;95321.56;4344340;32;20261;-60
2023/07/23 08:17:18;;;;;;;0.50;0.50;;;;;;;22.96;51.07;95328.97;4332504;32;20261;-60
2023/07/23 08:19:44;;;;;;;1.20;1.20;;;;;;;23.01;49.71;95319.72;4341737;32;20193;-62
2023/07/23 08:22:09;;;;;;;1.07;1.07;;;;;;;23.03;50.58;95317.44;4347519;32;20208;-59
2023/07/23 08:24:35;;;;;;;0.80;0.80;;;;;;;23.08;54.31;95308.94;4353857;32;20204;-59
2023/07/23 08:27:03;;;;;;;0.93;0.50;;;;;;;23.09;51.05;95310.50;4355269;32;20185;-59
2023/07/23 08:29:29;;;;;;;0.67;0.67;;;;;;;23.14;48.95;95312.09;4336949;32;20197;-60
2023/07/23 08:31:58;;;;;;;3.27;1.60;;;;;;;23.16;48.67;95307.88;4338316;32;20204;-60
2023/07/23 08:34:25;;;;;;;9.93;1.80;;;;;;;23.21;49.42;95304.03;4353269;32;20268;-61
2023/07/23 08:36:51;;;;;;;9.93;1.80;;;;;;;23.21;50.46;95304.03;4356316;32;20196;-60
2023/07/23 08:39:17;;;;;;;1.37;1.10;;;;;;;23.20;57.31;95308.69;4357371;32;20235;-61
2023/07/23 08:42:14;;;;;;;0.80;0.80;;;;;;;23.31;52.24;95314.16;4342742;32;20263;-60
2023/07/23 08:44:49;;;;;;;2.10;1.13;;;;;;;23.22;51.60;95302.91;4343590;32;20240;-61
2023/07/23 08:47:15;;;;;;;0.17;0.17;;;;;;;23.28;55.02;95307.56;4339880;32;20204;-61
2023/07/23 08:49:43;;;;;;;2.63;0.93;;;;;;;23.24;49.69;95301.38;4349022;32;20189;-61
2023/07/23 08:52:12;;;;;;;2.93;2.80;;;;;;;23.28;50.29;95302.16;4354337;32;20189;-61
2023/07/23 08:54:38;;;;;;;2.03;1.93;;;;;;;23.36;53.02;95304.94;4346045;32;20236;-61
2023/07/23 08:57:04;;;;;;;1.03;1.03;;;;;;;23.38;49.97;95299.91;4352994;32;20197;-61
2023/07/23 08:59:31;;;;;;;0.50;0.50;;;;;;;23.42;49.55;95303.44;4360101;32;20193;-60
2023/07/23 09:01:57;;;;;;;0.73;0.73;;;;;;;23.52;56.60;95302.75;4358990;32;20204;-60
2023/07/23 09:04:22;;;;;;;0.53;0.53;;;;;;;23.55;52.78;95302.78;4361141;32;20269;-60
2023/07/23 09:06:51;;;;;;;0.93;0.93;;;;;;;23.58;51.53;95306.66;4363469;32;20192;-60
2023/07/23 09:09:17;;;;;;;1.10;0.80;;;;;;;23.54;56.16;95301.22;4351718;32;20192;-60
2023/07/23 09:11:42;;;;;;;0.83;0.83;;;;;;;23.53;55.21;95294.25;4349527;32;20223;-60
2023/07/23 09:14:13;;;;;;;1.07;1.07;;;;;;;23.62;51.68;95302.06;4338211;32;20239;-61
2023/07/23 09:16:44;;;;;;;0.73;0.73;;;;;;;23.67;50.62;95304.41;4358328;32;20196;-61
2023/07/23 09:19:10;;;;;;;0.63;0.63;;;;;;;23.63;54.07;95292.78;4352077;32;20216;-60
2023/07/23 09:21:38;;;;;;;0.63;0.63;;;;;;;23.66;48.50;95297.44;4340512;32;20246;-60
2023/07/23 09:24:06;;;;;;;0.53;0.53;;;;;;;23.68;51.27;95289.72;4348718;32;20211;-64
2023/07/23 09:26:32;;;;;;;1.40;0.93;;;;;;;23.75;50.75;95287.03;4353495;32;20207;-60
2023/07/23 09:29:02;;;;;;;0.60;0.60;;;;;;;23.68;49.15;95289.72;4355403;32;20189;-61
2023/07/23 09:31:30;;;;;;;0.77;0.77;;;;;;;23.68;51.68;95295.12;4341328;32;20198;-60
2023/07/23 09:33:58;;;;;;;1.27;1.27;;;;;;;23.66;49.38;95286.59;4358972;32;20232;-60
2023/07/23 09:36:25;;;;;;;0.30;0.30;;;;;;;23.77;49.36;95287.44;4354587;32;20340;-61
2023/07/23 09:39:04;;;;;;;0.67;0.67;;;;;;;23.74;50.33;95299.03;4347056;32;20205;-60
2023/07/23 09:41:38;;;;;;;0.90;0.90;;;;;;;23.66;49.69;95288.53;4354113;32;20279;-61
2023/07/23 09:44:12;;;;;;;0.30;0.30;;;;;;;23.68;48.09;95278.09;4357110;32;20210;-62
2023/07/23 09:46:45;;;;;;;2.70;0.83;;;;;;;23.75;48.16;95278.91;4356783;32;20236;-61
2023/07/23 09:49:11;;;;;;;0.63;0.63;;;;;;;23.81;49.75;95282.03;4357329;32;20221;-61
2023/07/23 09:51:37;;;;;;;0.90;0.90;;;;;;;23.83;50.30;95293.28;4345843;32;20245;-61
2023/07/23 09:54:04;;;;;;;1.27;1.17;;;;;;;23.70;50.58;95281.97;4346843;32;20231;-61
2023/07/23 09:56:31;;;;;;;2.57;1.07;;;;;;;23.74;46.78;95284.69;4358598;32;20188;-60
2023/07/23 09:58:58;;;;;;;1.27;0.80;;;;;;;23.76;47.45;95276.97;4357364;32;20217;-61
2023/07/23 10:01:23;;;;;;;0.80;0.70;;;;;;;23.79;47.24;95292.47;4354983;32;20283;-61
2023/07/23 10:03:49;;;;;;;0.97;0.87;;;;;;;23.70;47.32;95281.97;4340880;32;20190;-61
2023/07/23 10:06:15;;;;;;;0.50;0.50;;;;;;;23.79;46.22;95278.94;4337214;32;20223;-60
2023/07/23 10:08:44;;;;;;;0.70;0.70;;;;;;;23.70;48.53;95270.34;4345974;32;20197;-60
2023/07/23 10:11:12;;;;;;;1.13;1.03;;;;;;;23.74;47.73;95277.34;4358729;32;20209;-60
2023/07/23 10:13:38;;;;;;;0.63;0.63;;;;;;;23.79;47.79;95278.94;4344131;32;20247;-61
2023/07/23 10:16:11;;;;;;;0.83;0.83;;;;;;;23.80;46.84;95278.56;4361968;32;20263;-64
2023/07/23 10:18:40;;;;;;;0.73;0.73;;;;;;;23.85;47.40;95283.63;4347922;32;20197;-61
2023/07/23 10:21:07;;;;;;;0.83;0.83;;;;;;;23.81;47.62;95271.97;4357429;32;20181;-60
2023/07/23 10:23:33;;;;;;;2.70;0.97;;;;;;;24.01;46.21;95277.09;4349910;32;20197;-61
2023/07/23 10:26:20;;;;;;;0.50;0.50;;;;;;;23.89;47.43;95272.81;4353010;32;20219;-60
2023/07/23 10:28:48;;;;;;;1.33;1.03;;;;;;;24.06;44.29;95268.63;4348710;32;20251;-60
2023/07/23 10:31:33;;;;;;;0.90;0.90;;;;;;;24.08;44.07;95269.00;4340436;32;20248;-61
2023/07/23 10:33:59;;;;;;;2.40;1.60;;;;;;;24.08;45.50;95274.44;4345638;32;20211;-60
2023/07/23 10:36:27;;;;;;;0.80;0.80;;;;;;;24.18;45.52;95265.56;4348464;32;20197;-60
2023/07/23 10:39:22;;;;;;;0.40;0.40;;;;;;;24.26;45.03;95264.47;4341365;32;20193;-60
2023/07/23 10:41:55;;;;;;;0.87;0.60;;;;;;;24.07;45.11;95260.09;4339925;32;20232;-60
2023/07/23 10:44:27;;;;;;;0.90;0.90;;;;;;;24.51;41.05;95243.63;4340697;32;20193;-61
2023/07/23 10:46:52;;;;;;;1.50;1.00;;;;;;;24.45;44.22;95247.84;4355219;32;20229;-60
2023/07/23 10:49:23;;;;;;;0.70;0.70;;;;;;;24.30;45.50;95255.19;4357941;32;20293;-60
2023/07/23 10:51:50;;;;;;;1.73;1.63;;;;;;;24.30;44.76;95240.84;4344064;32;20282;-61
2023/07/23 10:54:18;;;;;;;1.27;1.27;;;;;;;24.45;43.62;95247.84;4336253;32;20209;-60
2023/07/23 10:56:44;;;;;;;0.90;0.90;;;;;;;24.42;45.27;95235.06;4348745;32;20243;-60
2023/07/23 10:59:14;;;;;;;0.73;0.73;;;;;;;24.97;42.29;95245.63;4347803;32;20213;-59
2023/07/23 11:01:45;;;;;;;1.03;1.03;;;;;;;24.57;45.57;95247.47;4356930;32;20202;-61
2023/07/23 11:04:12;;;;;;;1.00;1.00;;;;;;;24.69;43.20;95237.44;4364113;32;20193;-61
2023/07/23 11:06:41;;;;;;;1.57;1.57;;;;;;;24.79;42.72;95231.22;4358808;32;20240;-60
2023/07/23 11:09:10;;;;;;;0.93;0.93;;;;;;;24.87;43.57;95230.09;4358078;32;20239;-61
2023/07/23 11:11:40;;;;;;;1.33;1.30;;;;;;;24.65;45.06;95226.56;4357385;32;20219;-61
2023/07/23 11:14:16;;;;;;;0.87;0.87;;;;;;;24.50;45.40;95225.78;4359564;32;20188;-61
2023/07/23 11:16:42;;;;;;;1.17;1.17;;;;;;;24.82;41.03;95220.38;4345294;32;20200;-60
2023/07/23 11:19:07;;;;;;;1.37;1.27;;;;;;;24.82;42.39;95225.03;4352489;32;20251;-60
2023/07/23 11:21:33;;;;;;;0.80;0.80;;;;;;;24.70;44.18;95214.56;4347983;32;20236;-60
2023/07/23 11:23:59;;;;;;;1.07;1.07;;;;;;;24.67;43.87;95213.41;4339930;32;20197;-61
2023/07/23 11:26:24;;;;;;;1.13;1.13;;;;;;;24.57;44.28;95220.34;4352726;32;20283;-60
2023/07/23 11:28:51;;;;;;;0.57;0.57;;;;;;;24.53;42.45;95230.41;4343103;32;20190;-60
2023/07/23 11:31:17;;;;;;;1.07;1.07;;;;;;;24.60;43.98;95214.16;4337289;32;20209;-60
2023/07/23 11:33:42;;;;;;;0.70;0.70;;;;;;;24.52;44.07;95218.03;4337534;32;20208;-59